createdAt,value
2022-08-10T00:02:00.488Z,99167.94
2022-08-10T00:05:03.978Z,99168.86
2022-08-10T00:08:06.878Z,99172.40
2022-08-10T00:11:15.324Z,99170.30
2022-08-10T00:14:19.786Z,99171.93
2022-08-10T00:17:22.804Z,99172.13
2022-08-10T00:20:25.878Z,99170.80
2022-08-10T00:23:28.750Z,99170.89
2022-08-10T00:27:52.895Z,99169.17
2022-08-10T00:29:56.119Z,99169.06
2022-08-10T00:32:58.967Z,99170.50
2022-08-10T00:36:01.980Z,99167.51
2022-08-10T00:39:04.938Z,99171.06
2022-08-10T00:42:10.160Z,99168.79
2022-08-10T00:45:13.466Z,99174.22
2022-08-10T00:48:16.400Z,99166.55
2022-08-10T00:51:19.412Z,99163.71
2022-08-10T00:54:26.618Z,99162.94
2022-08-10T00:57:30.396Z,99162.80
2022-08-10T01:00:33.264Z,99161.40
2022-08-10T01:04:43.593Z,99157.30
2022-08-10T01:07:25.499Z,99158.02
2022-08-10T01:10:48.808Z,99155.86
2022-08-10T01:14:07.855Z,99151.11
2022-08-10T01:17:15.437Z,99155.25
2022-08-10T01:20:30.978Z,99156.73
2022-08-10T01:23:53.993Z,99160.32
2022-08-10T01:27:18.607Z,99159.53
2022-08-10T01:30:24.422Z,99162.02
2022-08-10T01:33:57.879Z,99157.99
2022-08-10T01:37:14.581Z,99161.98
2022-08-10T01:40:23.110Z,99160.66
2022-08-10T01:43:29.741Z,99163.14
2022-08-10T01:46:35.028Z,99165.41
2022-08-10T01:49:38.252Z,99166.80
2022-08-10T01:52:43.176Z,99159.64
2022-08-10T01:55:50.027Z,99162.59
2022-08-10T01:58:58.669Z,99160.57
2022-08-10T02:02:05.427Z,99156.07
2022-08-10T02:05:10.426Z,99159.41
2022-08-10T02:08:16.396Z,99158.86
2022-08-10T02:11:21.715Z,99160.16
2022-08-10T02:14:34.893Z,99162.96
2022-08-10T02:17:59.065Z,99159.67
2022-08-10T02:21:08.309Z,99160.40
2022-08-10T02:24:13.852Z,99159.17
2022-08-10T02:27:19.283Z,99154.83
2022-08-10T02:30:23.141Z,99164.70
2022-08-10T02:33:27.809Z,99163.38
2022-08-10T02:36:34.299Z,99168.80
2022-08-10T02:39:37.472Z,99168.67
2022-08-10T02:45:19.721Z,99167.11
2022-08-10T02:46:22.516Z,99168.17
2022-08-10T02:49:35.543Z,99168.90
2022-08-10T02:52:46.619Z,99169.61
2022-08-10T02:56:10.128Z,99171.14
2022-08-10T02:59:28.001Z,99170.84
2022-08-10T03:02:49.802Z,99173.63
2022-08-10T03:06:01.459Z,99176.27
2022-08-10T03:09:07.825Z,99174.08
2022-08-10T03:12:35.426Z,99177.43
2022-08-10T03:15:38.804Z,99180.38
2022-08-10T03:18:43.394Z,99181.97
2022-08-10T03:21:49.076Z,99176.76
2022-08-10T03:24:54.318Z,99175.11
2022-08-10T03:27:58.013Z,99181.21
2022-08-10T03:31:02.092Z,99177.11
2022-08-10T03:34:05.984Z,99177.59
2022-08-10T03:37:28.944Z,99179.66
2022-08-10T03:40:45.681Z,99178.96
2022-08-10T03:43:50.258Z,99179.83
2022-08-10T03:46:54.393Z,99181.27
2022-08-10T03:49:59.324Z,99181.58
2022-08-10T03:54:02.485Z,99183.88
2022-08-10T03:56:46.086Z,99189.20
2022-08-10T03:59:50.047Z,99187.39
2022-08-10T04:02:54.214Z,99186.73
2022-08-10T04:05:58.006Z,99188.09
2022-08-10T04:09:02.488Z,99192.13
2022-08-10T04:12:06.504Z,99193.00
2022-08-10T04:15:09.815Z,99196.34
2022-08-10T04:18:12.708Z,99196.17
2022-08-10T04:21:19.121Z,99196.24
2022-08-10T04:24:29.757Z,99198.46
2022-08-10T04:27:36.152Z,99197.98
2022-08-10T04:30:40.920Z,99197.80
2022-08-10T04:33:48.093Z,99201.20
2022-08-10T04:36:54.403Z,99197.55
2022-08-10T04:39:57.771Z,99199.51
2022-08-10T04:43:12.283Z,99197.98
2022-08-10T04:46:56.061Z,99198.92
2022-08-10T04:49:56.297Z,99203.89
2022-08-10T04:52:59.833Z,99204.89
2022-08-10T04:56:02.761Z,99204.00
2022-08-10T04:59:07.837Z,99202.45
2022-08-10T05:02:28.933Z,99205.39
2022-08-10T05:05:34.585Z,99213.41
2022-08-10T05:08:37.546Z,99211.67
2022-08-10T05:11:40.542Z,99214.29
2022-08-10T05:14:43.635Z,99216.70
2022-08-10T05:18:06.860Z,99222.01
2022-08-10T05:21:09.771Z,99225.80
2022-08-10T05:24:12.729Z,99224.91
2022-08-10T05:27:15.572Z,99231.45
2022-08-10T05:30:20.803Z,99232.75
2022-08-10T05:33:23.711Z,99230.86
2022-08-10T05:36:27.543Z,99235.77
2022-08-10T05:39:32.265Z,99234.48
2022-08-10T05:42:35.850Z,99236.55
2022-08-10T05:46:17.902Z,99234.73
2022-08-10T05:49:02.280Z,99233.55
2022-08-10T05:52:05.643Z,99232.86
2022-08-10T05:55:09.328Z,99235.27
2022-08-10T05:58:12.524Z,99239.05
2022-08-10T06:01:18.918Z,99241.00
2022-08-10T06:04:30.653Z,99242.92
2022-08-10T06:07:37.086Z,99240.52
2022-08-10T06:12:16.537Z,99240.54
2022-08-10T06:14:28.517Z,99240.61
2022-08-10T06:17:32.363Z,99240.59
2022-08-10T06:20:36.333Z,99243.81
2022-08-10T06:23:40.055Z,99242.95
2022-08-10T06:26:44.851Z,99246.23
2022-08-10T06:29:49.516Z,99248.03
2022-08-10T06:32:55.724Z,99252.48
2022-08-10T06:36:00.784Z,99252.02
2022-08-10T06:39:29.946Z,99251.98
2022-08-10T06:42:32.400Z,99255.02
2022-08-10T06:45:44.161Z,99255.64
2022-08-10T06:48:52.952Z,99253.20
2022-08-10T06:51:57.794Z,99254.23
2022-08-10T06:55:05.602Z,99247.54
2022-08-10T06:58:14.447Z,99241.98
2022-08-10T07:01:22.846Z,99243.58
2022-08-10T07:04:32.404Z,99245.45
2022-08-10T07:07:41.242Z,99242.61
2022-08-10T07:10:48.023Z,99248.24
2022-08-10T07:14:16.917Z,99247.38
2022-08-10T07:17:19.484Z,99248.90
2022-08-10T07:20:24.060Z,99246.11
2022-08-10T07:23:56.869Z,99246.11
2022-08-10T07:26:54.922Z,99247.88
2022-08-10T07:30:00.317Z,99244.21
2022-08-10T07:33:06.235Z,99248.20
2022-08-10T07:36:11.327Z,99249.38
2022-08-10T07:39:17.156Z,99250.13
2022-08-10T07:42:45.898Z,99245.97
2022-08-10T07:45:50.529Z,99243.22
2022-08-10T07:49:16.740Z,99245.77
2022-08-10T07:52:23.777Z,99241.27
2022-08-10T07:56:05.147Z,99236.88
2022-08-10T07:58:55.618Z,99239.76
2022-08-10T08:02:01.202Z,99243.02
2022-08-10T08:05:09.957Z,99243.77
2022-08-10T08:08:15.485Z,99243.42
2022-08-10T08:11:25.701Z,99239.67
2022-08-10T08:14:31.395Z,99235.86
2022-08-10T08:17:36.466Z,99236.83
2022-08-10T08:20:41.271Z,99237.02
2022-08-10T08:24:10.688Z,99230.86
2022-08-10T08:27:17.596Z,99224.80
2022-08-10T08:30:27.789Z,99224.41
2022-08-10T08:33:41.587Z,99222.14
2022-08-10T08:36:47.666Z,99225.46
2022-08-10T08:39:50.946Z,99226.92
2022-08-10T08:43:16.508Z,99225.27
2022-08-10T08:46:58.788Z,99223.58
2022-08-10T08:50:10.203Z,99225.91
2022-08-10T08:54:02.314Z,99223.70
2022-08-10T08:57:46.348Z,99220.71
2022-08-10T09:00:56.936Z,99222.84
2022-08-10T09:04:41.030Z,99224.80
2022-08-10T09:08:06.201Z,99229.74
2022-08-10T09:11:41.463Z,99227.79
2022-08-10T09:15:02.600Z,99230.00
2022-08-10T09:18:05.532Z,99228.38
2022-08-10T09:21:28.161Z,99227.80
2022-08-10T09:24:58.733Z,99223.40
2022-08-10T09:28:09.943Z,99224.20
2022-08-10T09:31:28.867Z,99215.70
2022-08-10T09:36:20.690Z,99218.64
2022-08-10T09:38:54.597Z,99225.94
2022-08-10T09:43:02.251Z,99224.42
2022-08-10T09:46:20.269Z,99223.58
2022-08-10T09:49:59.717Z,99217.67
2022-08-10T09:53:12.996Z,99216.98
2022-08-10T09:56:29.005Z,99214.63
2022-08-10T10:00:01.239Z,99214.48
2022-08-10T10:03:26.365Z,99208.29
2022-08-10T10:06:54.953Z,99207.54
2022-08-10T10:10:18.892Z,99212.59
2022-08-10T10:14:10.465Z,99213.39
2022-08-10T10:17:27.191Z,99206.02
2022-08-10T10:20:55.742Z,99199.77
2022-08-10T10:24:48.189Z,99192.36
2022-08-10T10:28:01.868Z,99192.41
2022-08-10T10:31:16.603Z,99191.03
2022-08-10T10:34:46.109Z,99187.41
2022-08-10T10:38:10.166Z,99185.80
2022-08-10T10:41:16.000Z,99181.80
2022-08-10T10:44:42.133Z,99170.98
2022-08-10T10:48:02.796Z,99166.45
2022-08-10T10:51:25.625Z,99170.14
2022-08-10T10:54:40.642Z,99171.56
2022-08-10T10:58:24.255Z,99166.52
2022-08-10T11:02:12.580Z,99163.06
2022-08-10T11:05:23.231Z,99155.11
2022-08-10T11:08:30.952Z,99150.71
2022-08-10T11:12:01.646Z,99151.95
2022-08-10T11:15:24.162Z,99147.45
2022-08-10T11:18:39.953Z,99147.41
2022-08-10T11:21:46.055Z,99153.50
2022-08-10T11:24:57.289Z,99151.13
2022-08-10T11:28:09.266Z,99143.40
2022-08-10T11:31:24.370Z,99144.46
2022-08-10T11:35:11.977Z,99145.31
2022-08-10T11:39:04.098Z,99139.63
2022-08-10T11:42:26.625Z,99137.08
2022-08-10T11:45:51.569Z,99134.88
2022-08-10T11:49:21.539Z,99133.31
2022-08-10T11:52:51.914Z,99132.20
2022-08-10T11:55:57.335Z,99142.05
2022-08-10T11:59:20.005Z,99131.98
2022-08-10T12:02:33.898Z,99132.78
2022-08-10T12:05:51.770Z,99140.52
2022-08-10T12:10:10.582Z,99141.45
2022-08-10T12:12:23.750Z,99128.42
2022-08-10T12:15:34.527Z,99123.38
2022-08-10T12:18:50.711Z,99114.76
2022-08-10T12:22:05.855Z,99123.90
2022-08-10T12:25:55.901Z,99127.00
2022-08-10T12:29:10.780Z,99126.24
2022-08-10T12:32:25.375Z,99120.63
2022-08-10T12:35:56.217Z,99113.21
2022-08-10T12:39:21.653Z,99107.61
2022-08-10T12:42:40.548Z,99097.38
2022-08-10T12:46:15.865Z,99098.29
2022-08-10T12:49:32.322Z,99093.21
2022-08-10T12:52:44.848Z,99088.81
2022-08-10T12:55:50.057Z,99085.61
2022-08-10T12:58:59.371Z,99085.36
2022-08-10T13:02:10.250Z,99086.51
2022-08-10T13:05:15.182Z,99086.73
2022-08-10T13:08:40.312Z,99082.05
2022-08-10T13:12:35.929Z,99076.83
2022-08-10T13:15:49.151Z,99067.58
2022-08-10T13:18:52.918Z,99064.75
2022-08-10T13:21:58.010Z,99059.09
2022-08-10T13:25:03.992Z,99062.93
2022-08-10T13:28:35.532Z,99063.55
2022-08-10T13:32:04.415Z,99065.66
2022-08-10T13:35:03.197Z,99062.36
2022-08-10T13:38:09.094Z,99064.80
2022-08-10T13:41:12.807Z,99059.63
2022-08-10T13:44:27.915Z,99055.27
2022-08-10T13:47:49.022Z,99050.17
2022-08-10T13:51:00.355Z,99050.21
2022-08-10T13:54:05.719Z,99046.96
2022-08-10T13:57:11.653Z,99050.39
2022-08-10T14:00:36.289Z,99042.66
2022-08-10T14:03:41.536Z,99039.13
2022-08-10T14:06:53.099Z,99033.27
2022-08-10T14:10:08.106Z,99033.15
2022-08-10T14:13:13.668Z,99030.18
2022-08-10T14:16:18.674Z,99027.97
2022-08-10T14:19:25.939Z,99026.55
2022-08-10T14:22:43.329Z,99035.40
2022-08-10T14:25:51.108Z,99032.50
2022-08-10T14:29:19.648Z,99034.56
2022-08-10T14:32:27.290Z,99031.74
2022-08-10T14:36:23.338Z,99035.21
2022-08-10T14:39:02.416Z,99032.98
2022-08-10T14:42:22.636Z,99031.16
2022-08-10T14:45:34.313Z,99035.43
2022-08-10T14:48:42.444Z,99038.38
2022-08-10T14:51:46.942Z,99041.88
2022-08-10T14:54:51.612Z,99036.37
2022-08-10T14:58:19.132Z,99032.38
2022-08-10T15:01:22.705Z,99022.00
2022-08-10T15:04:28.625Z,99022.20
2022-08-10T15:07:33.861Z,99022.89
2022-08-10T15:10:38.511Z,99020.42
2022-08-10T15:14:29.224Z,99019.88
2022-08-10T15:17:23.574Z,99015.25
2022-08-10T15:20:31.568Z,99014.30
2022-08-10T15:24:05.714Z,99010.59
2022-08-10T15:27:00.118Z,99013.99
2022-08-10T15:30:05.172Z,99017.92
2022-08-10T15:33:57.742Z,99016.27
2022-08-10T15:37:36.566Z,99015.47
2022-08-10T15:40:51.848Z,99015.33
2022-08-10T15:43:55.256Z,99008.45
2022-08-10T15:47:02.613Z,99009.63
2022-08-10T15:50:21.779Z,99012.46
2022-08-10T15:53:49.030Z,99016.85
2022-08-10T15:56:59.698Z,99013.89
2022-08-10T16:00:09.066Z,99012.59
2022-08-10T16:03:23.486Z,99012.61
2022-08-10T16:06:43.483Z,99009.76
2022-08-10T16:10:24.091Z,99010.38
2022-08-10T16:14:00.460Z,99004.89
2022-08-10T16:16:41.456Z,99004.64
2022-08-10T16:19:52.315Z,99001.32
2022-08-10T16:22:58.738Z,98997.66
2022-08-10T16:26:14.960Z,98997.67
2022-08-10T16:29:24.765Z,99003.56
2022-08-10T16:32:30.032Z,99005.31
2022-08-10T16:35:35.324Z,99007.17
2022-08-10T16:38:42.485Z,99009.17
2022-08-10T16:42:03.979Z,99006.16
2022-08-10T16:45:11.127Z,99003.00
2022-08-10T16:48:16.281Z,99002.55
2022-08-10T16:51:41.240Z,99006.10
2022-08-10T16:54:50.266Z,99007.61
2022-08-10T16:57:56.878Z,99011.27
2022-08-10T17:01:04.544Z,99003.88
2022-08-10T17:04:10.265Z,99005.71
2022-08-10T17:07:17.050Z,99006.66
2022-08-10T17:10:21.480Z,99006.64
2022-08-10T17:13:27.768Z,99005.52
2022-08-10T17:16:41.690Z,99008.70
2022-08-10T17:19:45.520Z,99010.99
2022-08-10T17:22:54.738Z,99012.66
2022-08-10T17:26:02.942Z,99011.91
2022-08-10T17:29:57.755Z,99014.56
2022-08-10T17:32:44.962Z,99015.52
2022-08-10T17:35:50.714Z,99016.98
2022-08-10T17:38:55.961Z,99013.21
2022-08-10T17:42:01.079Z,99013.69
2022-08-10T17:45:05.537Z,99014.94
2022-08-10T17:48:09.721Z,99016.02
2022-08-10T17:51:15.437Z,99017.05
2022-08-10T17:54:24.271Z,99017.48
2022-08-10T17:57:28.122Z,99023.30
2022-08-10T18:00:33.320Z,99020.84
2022-08-10T18:03:40.986Z,99017.79
2022-08-10T18:06:44.516Z,99023.11
2022-08-10T18:09:55.048Z,99027.17
2022-08-10T18:13:00.773Z,99028.77
2022-08-10T18:16:05.286Z,99033.73
2022-08-10T18:19:11.680Z,99032.80
2022-08-10T18:22:16.847Z,99036.29
2022-08-10T18:25:27.011Z,99038.31
2022-08-10T18:28:32.069Z,99038.42
2022-08-10T18:31:37.360Z,99044.73
2022-08-10T18:34:46.465Z,99043.63
2022-08-10T18:37:51.027Z,99045.77
2022-08-10T18:41:00.493Z,99050.41
2022-08-10T18:44:13.862Z,99045.95
2022-08-10T18:47:28.071Z,99047.34
2022-08-10T18:50:35.201Z,99047.91
2022-08-10T18:53:50.607Z,99048.90
2022-08-10T18:56:59.099Z,99050.23
2022-08-10T19:00:08.082Z,99051.92
2022-08-10T19:03:35.420Z,99051.48
2022-08-10T19:07:00.169Z,99052.41
2022-08-10T19:10:14.208Z,99055.63
2022-08-10T19:13:30.440Z,99054.96
2022-08-10T19:16:36.439Z,99063.50
2022-08-10T19:20:04.194Z,99063.13
2022-08-10T19:23:27.288Z,99063.13
2022-08-10T19:26:56.982Z,99061.70
2022-08-10T19:30:13.314Z,99060.96
2022-08-10T19:33:35.597Z,99058.59
2022-08-10T19:36:55.008Z,99057.53
2022-08-10T19:40:44.169Z,99054.53
2022-08-10T19:44:00.251Z,99055.70
2022-08-10T19:47:41.013Z,99058.39
2022-08-10T19:50:48.440Z,99056.17
2022-08-10T19:54:06.497Z,99053.46
2022-08-10T19:57:12.832Z,99053.53
2022-08-10T20:00:23.019Z,99054.92
2022-08-10T20:03:51.831Z,99054.38
2022-08-10T20:06:57.575Z,99052.73
2022-08-10T20:10:23.445Z,99051.34
2022-08-10T20:13:32.728Z,99050.05
2022-08-10T20:16:39.792Z,99051.28
2022-08-10T20:20:03.575Z,99053.81
2022-08-10T20:23:19.198Z,99054.44
2022-08-10T20:26:29.498Z,99055.55
2022-08-10T20:29:58.585Z,99052.22
2022-08-10T20:33:16.388Z,99052.55
2022-08-10T20:36:56.739Z,99053.20
2022-08-10T20:40:09.202Z,99052.79
2022-08-10T20:43:40.995Z,99051.89
2022-08-10T20:47:01.484Z,99054.66
2022-08-10T20:50:35.773Z,99058.27
2022-08-10T20:53:47.677Z,99058.68
2022-08-10T20:57:53.647Z,99058.61
2022-08-10T21:00:52.590Z,99060.97
2022-08-10T21:04:39.510Z,99060.11
2022-08-10T21:08:01.825Z,99062.80
2022-08-10T21:11:32.487Z,99067.29
2022-08-10T21:14:56.996Z,99065.19
2022-08-10T21:18:20.628Z,99062.61
2022-08-10T21:21:59.102Z,99060.70
2022-08-10T21:25:06.593Z,99053.40
2022-08-10T21:28:28.956Z,99057.09
2022-08-10T21:31:50.836Z,99050.98
2022-08-10T21:35:20.235Z,99049.58
2022-08-10T21:39:10.411Z,99050.96
2022-08-10T21:43:05.845Z,99047.66
2022-08-10T21:46:55.076Z,99046.02
2022-08-10T21:50:27.296Z,99044.08
2022-08-10T21:53:56.613Z,99048.36
2022-08-10T21:57:38.261Z,99050.22
2022-08-10T22:01:12.109Z,99045.70
2022-08-10T22:04:38.660Z,99041.81
2022-08-10T22:08:07.940Z,99046.67
2022-08-10T22:11:39.080Z,99045.27
2022-08-10T22:15:07.319Z,99037.80
2022-08-10T22:18:31.572Z,99034.08
2022-08-10T22:22:27.610Z,99031.90
2022-08-10T22:25:56.779Z,99028.95
2022-08-10T22:31:27.655Z,99026.15
2022-08-10T22:33:14.218Z,99026.29
2022-08-10T22:36:52.117Z,99027.42
2022-08-10T22:40:25.467Z,99028.46
2022-08-10T22:43:50.747Z,99025.04
2022-08-10T22:47:12.507Z,99017.40
2022-08-10T22:50:20.984Z,99017.64
2022-08-10T22:53:54.017Z,99013.84
2022-08-10T22:57:15.880Z,99013.96
2022-08-10T23:00:30.753Z,99012.85
2022-08-10T23:03:46.009Z,99015.48
2022-08-10T23:07:04.825Z,99009.76
2022-08-10T23:10:10.752Z,99012.03
2022-08-10T23:13:35.393Z,99009.43
2022-08-10T23:17:07.611Z,99010.85
2022-08-10T23:20:15.585Z,99012.23
2022-08-10T23:23:23.493Z,99011.11
2022-08-10T23:26:30.254Z,99018.52
2022-08-10T23:29:35.569Z,99017.55
2022-08-10T23:32:45.255Z,99012.84
2022-08-10T23:36:30.535Z,99011.78
2022-08-10T23:39:26.099Z,99012.41
2022-08-10T23:42:39.881Z,99008.25
2022-08-10T23:45:53.093Z,99003.94
2022-08-10T23:49:00.702Z,99004.07
2022-08-10T23:52:10.957Z,99006.40
2022-08-10T23:55:30.970Z,99002.70
2022-08-10T23:58:48.795Z,98997.32
